createdAt,value
2018-08-11T00:12:31.478Z,101204.00
2018-08-11T00:27:31.756Z,101194.00
2018-08-11T00:33:31.616Z,101198.00
2018-08-11T00:42:31.449Z,101187.00
2018-08-11T00:54:32.156Z,101180.00
2018-08-11T01:03:31.841Z,101177.00
2018-08-11T01:12:31.785Z,101176.00
2018-08-11T01:21:31.441Z,101164.00
2018-08-11T01:42:31.876Z,101149.00
2018-08-11T01:54:31.524Z,101152.00
2018-08-11T02:09:31.850Z,101141.00
2018-08-11T02:30:31.571Z,101117.00
2018-08-11T02:45:31.861Z,101087.00
2018-08-11T02:54:31.824Z,101072.00
2018-08-11T03:03:32.401Z,101067.00
2018-08-11T03:21:32.226Z,101084.00
2018-08-11T03:42:31.848Z,101084.00
2018-08-11T03:51:31.735Z,101080.00
2018-08-11T04:03:31.480Z,101074.00
2018-08-11T04:18:31.750Z,101073.00
2018-08-11T04:27:31.561Z,101081.00
2018-08-11T04:42:31.705Z,101084.00
2018-08-11T04:54:31.603Z,101089.00
2018-08-11T05:03:32.266Z,101081.00
2018-08-11T05:27:31.516Z,101066.00
2018-08-11T06:06:31.682Z,101060.00
2018-08-11T06:24:32.046Z,101058.00
2018-08-11T06:36:01.403Z,101059.00
2018-08-11T06:38:30.644Z,101062.00
2018-08-11T06:41:00.619Z,101055.00
2018-08-11T06:43:29.811Z,101054.00
2018-08-11T06:45:59.055Z,101061.00
2018-08-11T06:48:28.254Z,101051.00
2018-08-11T06:50:57.483Z,101049.00
2018-08-11T06:53:34.416Z,101052.00
2018-08-11T06:56:32.572Z,101043.00
2018-08-11T07:02:32.072Z,101044.00
2018-08-11T07:11:09.389Z,101030.00
2018-08-11T07:16:36.364Z,101029.00
2018-08-11T07:19:32.461Z,101028.00
2018-08-11T07:40:31.636Z,101019.00
2018-08-11T08:01:31.784Z,101007.00
2018-08-11T08:13:31.756Z,100996.00
2018-08-11T08:28:31.673Z,100988.00
2018-08-11T08:49:31.820Z,100976.00
2018-08-11T08:58:32.240Z,100975.00
2018-08-11T09:07:32.031Z,100969.00
2018-08-11T09:16:32.386Z,100961.00
2018-08-11T09:22:32.255Z,100962.00
2018-08-11T09:34:31.802Z,100955.00
2018-08-11T10:07:32.313Z,100923.00
2018-08-11T10:16:32.980Z,100905.00
2018-08-11T10:22:32.317Z,100891.00
2018-08-11T10:28:32.063Z,100872.00
2018-08-11T10:37:32.393Z,100851.00
2018-08-11T10:40:49.692Z,100849.00
2018-08-11T10:43:35.130Z,100837.00
2018-08-11T10:46:33.290Z,100825.00
2018-08-11T10:59:57.037Z,100827.00
2018-08-11T11:02:35.901Z,100819.00
2018-08-11T11:05:32.217Z,100811.00
2018-08-11T11:08:32.404Z,100819.00
2018-08-11T11:13:55.541Z,100817.00
2018-08-11T11:16:34.745Z,100810.00
2018-08-11T11:22:32.256Z,100810.00
2018-08-11T11:47:31.995Z,100778.00
2018-08-11T11:56:32.342Z,100783.00
2018-08-11T12:05:03.458Z,100773.00
2018-08-11T12:07:36.251Z,100767.00
2018-08-11T12:10:05.714Z,100756.00
2018-08-11T12:12:34.864Z,100755.00
2018-08-11T12:15:04.076Z,100761.00
2018-08-11T12:17:33.261Z,100769.00
2018-08-11T12:20:02.470Z,100761.00
2018-08-11T12:22:31.665Z,100763.00
2018-08-11T12:25:00.845Z,100767.00
2018-08-11T12:27:30.096Z,100756.00
2018-08-11T12:32:59.621Z,100743.00
2018-08-11T12:35:28.954Z,100740.00
2018-08-11T12:37:58.163Z,100750.00
2018-08-11T12:40:27.569Z,100746.00
2018-08-11T12:42:56.766Z,100743.00
2018-08-11T12:45:25.985Z,100741.00
2018-08-11T12:47:55.168Z,100750.00
2018-08-11T12:50:24.783Z,100740.00
2018-08-11T12:52:53.945Z,100724.00
2018-08-11T12:55:23.254Z,100725.00
2018-08-11T13:00:52.586Z,100726.00
2018-08-11T13:03:21.876Z,100731.00
2018-08-11T13:05:51.074Z,100727.00
2018-08-11T13:08:20.322Z,100728.00
2018-08-11T13:10:49.482Z,100721.00
2018-08-11T13:13:18.635Z,100728.00
2018-08-11T13:15:47.972Z,100722.00
2018-08-11T13:18:17.254Z,100728.00
2018-08-11T13:20:46.610Z,100723.00
2018-08-11T13:23:15.761Z,100736.00
2018-08-11T13:25:45.021Z,100742.00
2018-08-11T13:28:14.237Z,100744.00
2018-08-11T13:30:43.523Z,100752.00
2018-08-11T13:33:12.857Z,100777.00
2018-08-11T13:35:42.123Z,100790.00
2018-08-11T13:38:34.465Z,100798.00
2018-08-11T13:41:32.439Z,100813.00
2018-08-11T14:02:32.601Z,100816.00
2018-08-11T14:14:32.185Z,100832.00
2018-08-11T14:26:02.822Z,100847.00
2018-08-11T14:28:32.014Z,100834.00
2018-08-11T14:31:01.161Z,100826.00
2018-08-11T14:33:30.372Z,100824.00
2018-08-11T14:39:00.045Z,100811.00
2018-08-11T14:41:29.297Z,100809.00
2018-08-11T14:43:58.604Z,100797.00
2018-08-11T14:46:27.868Z,100795.00
2018-08-11T14:51:57.372Z,100805.00
2018-08-11T14:54:26.590Z,100800.00
2018-08-11T14:56:55.751Z,100803.00
2018-08-11T14:59:24.966Z,100808.00
2018-08-11T15:01:54.228Z,100797.00
2018-08-11T15:04:23.482Z,100794.00
2018-08-11T15:06:52.678Z,100797.00
2018-08-11T15:09:34.698Z,100788.00
2018-08-11T15:12:03.920Z,100790.00
2018-08-11T15:14:33.103Z,100797.00
2018-08-11T15:17:02.405Z,100792.00
2018-08-11T15:19:31.572Z,100797.00
2018-08-11T15:22:00.750Z,100798.00
2018-08-11T15:24:31.048Z,100811.00
2018-08-11T15:27:00.276Z,100809.00
2018-08-11T15:29:30.244Z,100818.00
2018-08-11T15:35:00.211Z,100799.00
2018-08-11T15:37:35.022Z,100808.00
2018-08-11T15:40:04.845Z,100781.00
2018-08-11T15:42:35.822Z,100780.00
2018-08-11T15:45:32.339Z,100772.00
2018-08-11T15:51:02.491Z,100767.00
2018-08-11T15:53:35.305Z,100765.00
2018-08-11T15:56:04.567Z,100765.00
2018-08-11T15:58:35.224Z,100763.00
2018-08-11T16:01:04.497Z,100765.00
2018-08-11T16:03:33.713Z,100767.00
2018-08-11T16:06:02.923Z,100768.00
2018-08-11T16:08:32.140Z,100761.00
2018-08-11T16:11:01.537Z,100757.00
2018-08-11T16:13:36.937Z,100757.00
2018-08-11T16:16:06.296Z,100759.00
2018-08-11T16:18:35.444Z,100750.00
2018-08-11T16:21:04.822Z,100750.00
2018-08-11T16:23:34.009Z,100747.00
2018-08-11T16:26:32.233Z,100743.00
2018-08-11T16:29:01.506Z,100739.00
2018-08-11T16:31:30.667Z,100744.00
2018-08-11T16:33:59.886Z,100754.00
2018-08-11T16:36:29.045Z,100755.00
2018-08-11T16:38:58.321Z,100757.00
2018-08-11T16:41:35.034Z,100746.00
2018-08-11T16:44:04.342Z,100742.00
2018-08-11T16:46:35.190Z,100756.00
2018-08-11T16:49:04.349Z,100744.00
2018-08-11T16:51:33.702Z,100757.00
2018-08-11T16:54:02.937Z,100756.00
2018-08-11T16:59:13.502Z,100742.00
2018-08-11T17:01:42.697Z,100755.00
2018-08-11T17:04:11.856Z,100761.00
2018-08-11T17:06:41.115Z,100747.00
2018-08-11T17:09:33.064Z,100757.00
2018-08-11T17:12:02.452Z,100756.00
2018-08-11T17:14:31.651Z,100761.00
2018-08-11T17:18:54.482Z,100758.00
2018-08-11T17:21:23.686Z,100762.00
2018-08-11T17:26:53.748Z,100765.00
2018-08-11T17:29:22.905Z,100762.00
2018-08-11T17:31:52.101Z,100768.00
2018-08-11T17:34:21.351Z,100768.00
2018-08-11T17:36:50.566Z,100772.00
2018-08-11T17:39:19.737Z,100776.00
2018-08-11T17:41:48.940Z,100778.00
2018-08-11T17:44:18.160Z,100775.00
2018-08-11T17:46:47.401Z,100777.00
2018-08-11T17:49:16.552Z,100772.00
2018-08-11T17:51:45.841Z,100775.00
2018-08-11T17:54:15.018Z,100782.00
2018-08-11T17:56:44.169Z,100783.00
2018-08-11T17:59:13.384Z,100786.00
2018-08-11T18:01:42.534Z,100785.00
2018-08-11T18:04:11.718Z,100789.00
2018-08-11T18:06:40.968Z,100789.00
2018-08-11T18:09:11.593Z,100790.00
2018-08-11T18:11:41.366Z,100798.00
2018-08-11T18:14:10.997Z,100793.00
2018-08-11T18:16:40.486Z,100797.00
2018-08-11T18:19:33.268Z,100794.00
2018-08-11T18:22:32.062Z,100806.00
2018-08-11T18:28:01.461Z,100810.00
2018-08-11T18:30:36.839Z,100819.00
2018-08-11T18:33:32.557Z,100813.00
2018-08-11T18:36:01.773Z,100821.00
2018-08-11T18:38:30.957Z,100823.00
2018-08-11T18:41:00.785Z,100830.00
2018-08-11T18:43:30.069Z,100833.00
2018-08-11T18:45:59.185Z,100831.00
2018-08-11T18:48:33.372Z,100843.00
2018-08-11T18:51:02.568Z,100838.00
2018-08-11T18:53:31.770Z,100835.00
2018-08-11T18:56:00.921Z,100845.00
2018-08-11T18:58:30.118Z,100847.00
2018-08-11T19:00:59.361Z,100851.00
2018-08-11T19:03:28.620Z,100853.00
2018-08-11T19:05:57.834Z,100856.00
2018-08-11T19:08:27.093Z,100856.00
2018-08-11T19:10:56.375Z,100858.00
2018-08-11T19:13:35.673Z,100867.00
2018-08-11T19:16:04.915Z,100860.00
2018-08-11T19:18:35.112Z,100862.00
2018-08-11T19:21:04.322Z,100862.00
2018-08-11T19:23:33.537Z,100868.00
2018-08-11T19:26:03.477Z,100873.00
2018-08-11T19:28:36.530Z,100874.00
2018-08-11T19:31:05.742Z,100871.00
2018-08-11T19:33:35.000Z,100867.00
2018-08-11T19:36:04.178Z,100878.00
2018-08-11T19:38:33.402Z,100880.00
2018-08-11T19:41:02.768Z,100875.00
2018-08-11T19:43:36.095Z,100875.00
2018-08-11T19:46:05.367Z,100884.00
2018-08-11T19:48:34.582Z,100885.00
2018-08-11T19:51:03.802Z,100893.00
2018-08-11T19:53:33.017Z,100894.00
2018-08-11T19:56:02.512Z,100888.00
2018-08-11T19:58:31.782Z,100891.00
2018-08-11T20:01:01.050Z,100897.00
2018-08-11T20:03:30.185Z,100896.00
2018-08-11T20:05:59.400Z,100899.00
2018-08-11T20:08:33.848Z,100903.00
2018-08-11T20:11:03.312Z,100898.00
2018-08-11T20:13:32.555Z,100903.00
2018-08-11T20:16:01.793Z,100908.00
2018-08-11T20:18:36.548Z,100903.00
2018-08-11T20:21:05.866Z,100904.00
2018-08-11T20:23:35.121Z,100904.00
2018-08-11T20:26:04.329Z,100908.00
2018-08-11T20:28:33.595Z,100910.00
2018-08-11T20:31:02.858Z,100909.00
2018-08-11T20:33:32.181Z,100913.00
2018-08-11T20:36:01.452Z,100913.00
2018-08-11T20:38:33.745Z,100914.00
2018-08-11T20:41:03.089Z,100914.00
2018-08-11T20:43:32.203Z,100918.00
2018-08-11T20:46:02.364Z,100917.00
2018-08-11T20:48:31.602Z,100922.00
2018-08-11T20:51:00.789Z,100918.00
2018-08-11T20:53:36.052Z,100922.00
2018-08-11T20:56:05.252Z,100921.00
2018-08-11T20:58:34.622Z,100927.00
2018-08-11T21:01:04.554Z,100928.00
2018-08-11T21:03:33.785Z,100923.00
2018-08-11T21:06:03.460Z,100929.00
2018-08-11T21:08:32.675Z,100931.00
2018-08-11T21:11:02.103Z,100935.00
2018-08-11T21:13:32.328Z,100933.00
2018-08-11T21:16:01.714Z,100937.00
2018-08-11T21:18:30.975Z,100943.00
2018-08-11T21:21:00.898Z,100942.00
2018-08-11T21:23:30.300Z,100949.00
2018-08-11T21:25:59.494Z,100949.00
2018-08-11T21:28:29.119Z,100952.00
2018-08-11T21:30:58.410Z,100948.00
2018-08-11T21:33:27.669Z,100955.00
2018-08-11T21:35:57.038Z,100954.00
2018-08-11T21:38:26.418Z,100962.00
2018-08-11T21:40:55.713Z,100968.00
2018-08-11T21:43:24.958Z,100964.00
2018-08-11T21:45:54.196Z,100969.00
2018-08-11T21:48:36.079Z,100976.00
2018-08-11T21:51:05.271Z,100975.00
2018-08-11T21:53:34.548Z,100969.00
2018-08-11T21:56:03.811Z,100970.00
2018-08-11T21:58:32.988Z,100968.00
2018-08-11T22:01:12.009Z,100976.00
2018-08-11T22:03:42.218Z,100978.00
2018-08-11T22:06:11.398Z,100985.00
2018-08-11T22:08:40.937Z,100981.00
2018-08-11T22:11:10.271Z,100985.00
2018-08-11T22:13:39.479Z,100987.00
2018-08-11T22:16:34.591Z,100987.00
2018-08-11T22:19:03.768Z,100986.00
2018-08-11T22:21:32.937Z,100991.00
2018-08-11T22:24:02.126Z,100986.00
2018-08-11T22:26:31.283Z,100993.00
2018-08-11T22:29:00.465Z,100986.00
2018-08-11T22:31:29.688Z,100985.00
2018-08-11T22:33:58.845Z,100984.00
2018-08-11T22:36:28.006Z,100992.00
2018-08-11T22:38:57.348Z,100998.00
2018-08-11T22:41:26.485Z,100996.00
2018-08-11T22:43:55.657Z,100997.00
2018-08-11T22:46:24.897Z,101003.00
2018-08-11T22:48:54.209Z,101000.00
2018-08-11T22:51:23.369Z,101005.00
2018-08-11T22:53:52.561Z,101006.00
2018-08-11T22:56:21.782Z,101007.00
2018-08-11T22:58:50.966Z,101013.00
2018-08-11T23:01:20.414Z,101006.00
2018-08-11T23:03:49.637Z,101007.00
2018-08-11T23:06:18.833Z,101010.00
2018-08-11T23:08:48.049Z,101013.00
2018-08-11T23:11:34.533Z,101014.00
2018-08-11T23:14:03.918Z,101022.00
2018-08-11T23:16:33.096Z,101008.00
2018-08-11T23:19:02.280Z,101009.00
2018-08-11T23:21:31.464Z,101009.00
2018-08-11T23:24:00.640Z,101011.00
2018-08-11T23:26:29.793Z,101007.00
2018-08-11T23:28:59.000Z,101010.00
2018-08-11T23:31:28.156Z,101013.00
2018-08-11T23:33:57.380Z,101009.00
2018-08-11T23:36:26.626Z,101007.00
2018-08-11T23:38:55.794Z,101012.00
2018-08-11T23:41:25.002Z,101015.00
2018-08-11T23:43:54.246Z,101009.00
2018-08-11T23:46:23.472Z,101011.00
2018-08-11T23:48:53.013Z,101015.00
2018-08-11T23:51:22.223Z,101013.00
2018-08-11T23:53:51.375Z,101011.00
2018-08-11T23:56:20.744Z,101011.00
2018-08-11T23:58:49.945Z,101016.00
